Stations météo

réclame
Mon MeteoGroup
Lagunas de Somoza, Espagne (8123): Température de l'air & dewpoint: 10.12.2017 16:00:00 - 16.12.2017 16:00:00 (CET)Lagunas de Somoza, Espagne (8123): Vitesse du vent & gusts: 10.12.2017 16:00:00 - 16.12.2017 16:00:00 (CET)Lagunas de Somoza, Espagne (8123): Direction du vent: 10.12.2017 16:00:00 - 16.12.2017 16:00:00 (CET)Lagunas de Somoza, Espagne (8123): Quantités de précipitations: 10.12.2017 16:00:00 - 16.12.2017 16:00:00 (CET)
Date & Time tt [°C] td [°C] ff [km/h] ff [knt] fx [km/h] fx [knt] dd rr [mm]
16.12.2017 16:00:00 - - - - - - - -
16.12.2017 15:00:00 3,2 -4,2 18 10 30 16 SE 0,0
16.12.2017 14:00:00 4,4 -3,8 14 8 29 15 SSE 0,0
16.12.2017 13:00:00 3,4 -2,9 13 7 22 12 ESE -
16.12.2017 12:00:00 3,9 -4,0 13 7 29 15 S 0,0
16.12.2017 11:00:00 2,5 -2,8 15 8 24 13 SE 0,0
16.12.2017 10:00:00 0,8 -2,6 22 12 29 16 ESE 0,0
16.12.2017 09:00:00 -0,3 -3,1 14 7 26 14 ESE 0,0
16.12.2017 08:00:00 -0,4 -3,2 15 8 26 14 ESE 0,0
16.12.2017 07:00:00 0,3 -3,1 18 10 28 15 SE -
16.12.2017 06:00:00 0,1 -3,3 19 10 29 15 ESE 0,0
16.12.2017 05:00:00 -0,2 -3,2 19 10 27 15 ESE 0,0
16.12.2017 04:00:00 -0,1 -3,0 15 8 24 13 ESE 0,0
16.12.2017 03:00:00 0,2 -3,2 16 9 25 14 ESE 0,0
16.12.2017 02:00:00 0,3 -3,2 16 8 26 14 ESE 0,0
16.12.2017 01:00:00 0,6 -3,3 21 11 33 18 ESE -
16.12.2017 00:00:00 1,0 -2,9 20 11 34 19 SE 0,0
15.12.2017 23:00:00 1,0 -2,9 19 11 34 18 SE 0,0
15.12.2017 22:00:00 1,0 -3,1 23 12 37 20 SE 0,0
15.12.2017 21:00:00 1,0 -3,3 17 9 36 19 SE 0,0
15.12.2017 20:00:00 0,9 -3,2 20 11 35 19 SE 0,0
15.12.2017 19:00:00 1,1 -2,3 21 12 32 18 SE -
15.12.2017 18:00:00 1,4 -3,4 9 5 31 17 ESE 0,0
15.12.2017 17:00:00 2,8 -3,1 19 10 30 16 ESE 0,0
15.12.2017 16:00:00 3,2 -3,6 20 11 30 16 SE 0,0
15.12.2017 15:00:00 3,1 -3,4 17 9 32 17 SE 0,0
15.12.2017 14:00:00 3,6 -2,8 21 11 36 20 SE 0,0
15.12.2017 13:00:00 2,6 -1,4 19 10 35 19 SE -
15.12.2017 12:00:00 3,0 -1,7 16 9 34 19 SE 0,0
15.12.2017 11:00:00 2,6 -1,2 25 13 37 20 SE 0,0
15.12.2017 10:00:00 2,7 -0,2 14 7 36 19 ESE 0,0
15.12.2017 09:00:00 2,5 -0,4 21 11 46 25 SE 0,0
15.12.2017 08:00:00 3,1 -1,6 29 16 53 29 ESE 0,0
15.12.2017 07:00:00 2,9 1,0 29 16 49 26 SE -
15.12.2017 06:00:00 4,6 0,2 26 14 56 30 SE 0,0
15.12.2017 05:00:00 4,7 -0,7 33 18 57 31 SE 0,0
15.12.2017 04:00:00 4,3 1,0 21 12 34 18 ESE 0,0
15.12.2017 03:00:00 4,5 0,7 17 9 44 24 SE 0,0
15.12.2017 02:00:00 4,7 0,1 8 4 34 19 ESE 0,0
15.12.2017 01:00:00 4,7 -0,1 25 13 44 24 ESE -
15.12.2017 00:00:00 4,5 -1,5 35 19 51 28 ESE 0,0
14.12.2017 23:00:00 4,6 -0,4 22 12 41 22 ESE 0,0
14.12.2017 22:00:00 4,9 -0,3 20 11 46 25 ESE 0,0
14.12.2017 21:00:00 6,0 1,5 24 13 39 21 ESE 0,0
14.12.2017 20:00:00 7,2 3,5 22 12 36 19 E 0,0
14.12.2017 19:00:00 7,4 5,2 16 9 29 16 E -
14.12.2017 18:00:00 8,2 6,2 8 4 23 13 ESE 0,0
14.12.2017 17:00:00 8,6 6,2 16 9 27 15 SE 0,3
14.12.2017 16:00:00 9,8 8,1 3 1 16 9 S 0,0
14.12.2017 15:00:00 10,3 6,5 15 8 28 15 ESE 0,0
14.12.2017 14:00:00 9,9 5,7 18 10 41 22 ESE 0,0
14.12.2017 13:00:00 9,7 7,5 9 5 25 14 ESE -
14.12.2017 12:00:00 9,2 8,1 4 2 15 8 S 0,0
14.12.2017 11:00:00 8,9 7,5 1 1 21 11 ENE 0,1
14.12.2017 10:00:00 7,7 6,6 8 5 26 14 S 0,2
14.12.2017 09:00:00 9,2 5,9 15 8 28 15 ESE 0,0
14.12.2017 08:00:00 8,8 7,1 3 2 12 7 ESE 0,1
14.12.2017 07:00:00 7,3 6,4 2 1 7 4 NE -
14.12.2017 06:00:00 7,2 6,1 3 1 8 5 W 0,3
14.12.2017 05:00:00 8,6 6,4 2 1 31 17 ENE 0,0
14.12.2017 04:00:00 7,1 6,0 0 0 17 9 N 0,4
14.12.2017 03:00:00 7,5 6,0 1 1 19 10 NNE 0,3
14.12.2017 02:00:00 6,5 5,6 3 2 9 5 SSW 0,1
14.12.2017 01:00:00 7,5 6,0 6 3 17 9 NNW -
14.12.2017 00:00:00 7,8 5,8 1 0 10 5 SSW 0,9
13.12.2017 23:00:00 7,8 5,1 2 1 18 10 NNW 0,0
13.12.2017 22:00:00 8,7 5,6 11 6 18 10 SE 0,0
13.12.2017 21:00:00 7,6 4,6 1 1 15 8 W 0,0
13.12.2017 20:00:00 7,8 4,9 5 3 10 5 W 0,0
13.12.2017 19:00:00 7,6 4,7 3 2 9 5 NE -
13.12.2017 18:00:00 7,8 3,5 0 0 16 8 WSW 0,0
13.12.2017 17:00:00 8,7 3,3 4 2 31 17 N 0,0
13.12.2017 16:00:00 9,4 2,5 2 1 11 6 NW 0,0
13.12.2017 15:00:00 9,2 1,6 6 4 10 6 N 0,0
13.12.2017 14:00:00 9,7 2,3 6 4 16 9 NNW 0,0
13.12.2017 13:00:00 8,4 2,4 9 5 16 8 NW -
13.12.2017 12:00:00 6,9 2,6 3 2 8 4 SW 0,0
13.12.2017 11:00:00 2,7 1,2 1 1 10 6 W 0,0
13.12.2017 10:00:00 1,5 0,8 1 0 9 5 NNW 0,0
13.12.2017 09:00:00 -0,2 -0,9 5 3 13 7 NNE 0,0
13.12.2017 08:00:00 0,0 -1,0 4 2 19 10 WSW 0,0
13.12.2017 07:00:00 0,4 -0,6 8 4 14 8 SSW -
13.12.2017 06:00:00 0,0 -1,0 6 4 9 5 SSW 0,0
13.12.2017 05:00:00 -0,8 -2,2 5 3 8 4 SE 0,0
13.12.2017 04:00:00 0,6 -0,8 5 3 9 5 ESE 0,0
13.12.2017 03:00:00 0,3 -1,3 3 2 7 4 SSW 0,0
13.12.2017 02:00:00 -0,2 -2,2 3 2 9 5 ESE 0,0
13.12.2017 01:00:00 0,9 -2,0 4 2 9 5 W -
13.12.2017 00:00:00 1,9 -1,7 1 0 13 7 WNW 0,0
12.12.2017 23:00:00 2,3 -1,7 8 4 22 12 SE 0,0
12.12.2017 22:00:00 0,9 -2,3 1 0 9 5 SSE 0,0
12.12.2017 21:00:00 0,8 -2,1 6 4 16 9 ESE 0,0
12.12.2017 20:00:00 0,7 -2,2 6 4 10 6 E 0,0
12.12.2017 19:00:00 0,7 -2,9 3 2 9 5 SW -
12.12.2017 18:00:00 2,2 -2,7 2 1 18 10 NNE 0,0
12.12.2017 17:00:00 3,0 -2,5 9 5 23 12 ESE 0,0
12.12.2017 16:00:00 3,1 -2,6 15 8 21 11 ESE 0,0
12.12.2017 15:00:00 2,6 -2,9 18 10 32 17 ESE 0,0
12.12.2017 14:00:00 3,3 -3,0 18 10 27 15 ESE 0,0
12.12.2017 13:00:00 3,0 -2,9 16 9 30 16 ESE -
12.12.2017 12:00:00 2,5 -2,6 21 12 32 17 ESE 0,0
12.12.2017 11:00:00 1,7 -2,2 23 13 30 16 ESE 0,0
12.12.2017 10:00:00 1,1 -2,1 9 5 20 11 E 0,0
12.12.2017 09:00:00 -0,6 -2,8 14 8 26 14 ESE 0,0
12.12.2017 08:00:00 -0,5 -3,3 17 9 31 17 ESE 0,0
12.12.2017 07:00:00 0,0 -3,4 23 13 36 19 SE -
12.12.2017 06:00:00 -0,1 -3,8 20 11 36 19 SE 0,0
12.12.2017 05:00:00 -0,5 -3,5 17 9 31 17 SE 0,0
12.12.2017 04:00:00 -0,8 -3,6 8 4 23 13 ESE 0,0
12.12.2017 03:00:00 -0,6 -3,8 15 8 31 17 SSE 0,0
12.12.2017 02:00:00 -0,3 -3,3 20 11 29 15 SE 0,0
12.12.2017 01:00:00 -0,8 -3,6 15 8 28 15 SE -
12.12.2017 00:00:00 -0,7 -3,2 18 10 34 18 SE 0,0
11.12.2017 23:00:00 -0,6 -3,3 22 12 31 17 ESE 0,0
11.12.2017 22:00:00 -1,1 -3,9 15 8 32 17 ESE 0,0
11.12.2017 21:00:00 -1,0 -4,3 21 11 29 16 SE 0,0
11.12.2017 20:00:00 -1,1 -5,1 18 10 41 22 SE 0,0
11.12.2017 19:00:00 -0,7 -5,1 20 11 54 29 SE -
11.12.2017 18:00:00 -0,5 -3,3 32 18 54 29 SSE 0,0
11.12.2017 17:00:00 0,8 -4,0 27 15 45 25 S 0,0
11.12.2017 16:00:00 1,0 -1,5 21 11 40 22 S 0,0
11.12.2017 15:00:00 2,7 -1,8 24 13 47 26 S 0,0
11.12.2017 14:00:00 3,0 -0,8 30 16 46 25 SSE 0,0
11.12.2017 13:00:00 2,8 -1,0 22 12 41 22 SSE -
11.12.2017 12:00:00 2,3 -1,8 19 10 36 20 SSE 0,0
11.12.2017 11:00:00 2,3 -1,7 25 14 37 20 SSE 0,0
11.12.2017 10:00:00 0,4 -2,5 23 12 40 22 SSE 0,0
11.12.2017 09:00:00 0,3 -3,1 29 15 46 25 SSE 0,0
11.12.2017 08:00:00 0,1 -2,8 29 16 48 26 S 0,0
11.12.2017 07:00:00 0,5 -2,4 36 20 50 27 S -
11.12.2017 06:00:00 0,4 -1,5 37 20 51 28 S 0,0
11.12.2017 05:00:00 0,3 -0,7 22 12 53 29 S 1,0
11.12.2017 04:00:00 1,6 -0,6 16 9 34 19 SSE 0,3
11.12.2017 03:00:00 1,9 0,0 24 13 38 21 S 0,5
11.12.2017 02:00:00 2,3 0,4 5 3 30 16 E 0,6
11.12.2017 01:00:00 3,0 1,1 15 8 55 30 S -
11.12.2017 00:00:00 3,1 1,0 40 21 64 35 S 3,2
10.12.2017 23:00:00 4,7 2,4 28 15 58 31 S 6,0
10.12.2017 22:00:00 8,3 6,3 24 13 44 24 SE 5,0
10.12.2017 21:00:00 7,9 6,4 17 9 42 23 ESE 3,9
10.12.2017 20:00:00 8,5 6,3 23 12 56 30 SE 4,3
10.12.2017 19:00:00 8,1 6,1 13 7 42 23 ESE -
10.12.2017 18:00:00 8,5 6,0 19 11 43 23 SE 2,0
10.12.2017 17:00:00 8,5 5,8 16 8 48 26 SE 1,8
10.12.2017 16:00:00 8,9 5,8 12 6 51 28 SE 1,2

tt = Température de l'air
td = dewpoint
ff = Vitesse du vent
fx = gusts
dd = Direction du vent
rr = Quantités de précipitations

stations d'obs. à proximité